Time;durP1;ratioP1;P1;durP2;ratioP2;P2;SDS_P1;SDS_P2;PMS_P1;PMS_P2;Temp;Humidity;BMP_temperature;BMP_pressure;BME280_temperature;BME280_humidity;BME280_pressure;Samples;Min_cycle;Max_cycle;Signal;HPM_P1;HPM_P2
2024/02/21 00:02:07;;;;;;;;;;;;;;;2.52;63.04;96206.94;4954244;28;19954;-67
2024/02/21 00:04:33;;;;;;;;;;;;;;;2.88;62.14;96218.31;4961996;28;20267;-68
2024/02/21 00:06:58;;;;;;;;;;;;;;;3.01;61.87;96222.63;4954070;28;20036;-68
2024/02/21 00:09:24;;;;;;;;;;;;;;;2.67;62.76;96219.88;4953786;28;19972;-67
2024/02/21 00:11:49;;;;;;;;;;;;;;;2.65;62.33;96212.09;4954235;28;19965;-68
2024/02/21 00:14:14;;;;;;;;;;;;;;;2.71;62.45;96203.78;4955278;28;20327;-67
2024/02/21 00:16:39;;;;;;;;;;;;;;;3.25;60.35;96198.91;4956320;28;19963;-67
2024/02/21 00:19:04;;;;;;;;;;;;;;;2.67;61.56;96198.84;4952985;28;20024;-67
2024/02/21 00:21:30;;;;;;;;;;;;;;;2.76;62.03;96199.00;4953910;28;19986;-68
2024/02/21 00:23:55;;;;;;;;;;;;;;;2.92;61.39;96203.13;4951672;28;19922;-67
2024/02/21 00:26:20;;;;;;;;;;;;;;;2.26;63.53;96200.00;4950748;28;20089;-67
2024/02/21 00:28:46;;;;;;;;;;;;;;;2.34;63.98;96196.81;4951429;28;19952;-68
2024/02/21 00:31:11;;;;;;;;;;;;;;;2.45;63.60;96203.09;4951114;28;19926;-67
2024/02/21 00:33:36;;;;;;;;;;;;;;;2.09;63.19;96214.34;4951868;28;20366;-68
2024/02/21 00:36:02;;;;;;;;;;;;;;;1.99;64.23;96194.94;4948476;28;20040;-67
2024/02/21 00:38:27;;;;;;;;;;;;;;;1.91;64.59;96200.75;4953303;28;20009;-68
2024/02/21 00:40:52;;;;;;;;;;;;;;;1.87;64.56;96204.50;4953916;28;19977;-67
2024/02/21 00:43:17;;;;;;;;;;;;;;;1.74;65.61;96209.81;4952535;28;19926;-67
2024/02/21 00:45:43;;;;;;;;;;;;;;;1.75;66.13;96212.34;4953539;28;20155;-67
2024/02/21 00:48:08;;;;;;;;;;;;;;;1.06;66.81;96212.66;4952987;28;19926;-67
2024/02/21 00:50:33;;;;;;;;;;;;;;;2.25;64.81;96192.22;4953732;28;19930;-66
2024/02/21 00:52:58;;;;;;;;;;;;;;;2.37;63.73;96182.59;4948565;28;20220;-67
2024/02/21 00:55:23;;;;;;;;;;;;;;;2.69;61.79;96184.63;4951763;28;20033;-67
2024/02/21 00:57:49;;;;;;;;;;;;;;;1.71;65.97;96183.78;4952900;28;20470;-67
2024/02/21 01:00:14;;;;;;;;;;;;;;;2.32;63.77;96174.22;4950760;28;19926;-67
2024/02/21 01:02:39;;;;;;;;;;;;;;;2.98;61.27;96165.00;4952996;28;19926;-67
2024/02/21 01:05:05;;;;;;;;;;;;;;;2.96;61.57;96167.72;4953334;28;20666;-67
2024/02/21 01:07:30;;;;;;;;;;;;;;;2.82;62.12;96162.69;4953532;28;19953;-66
2024/02/21 01:09:55;;;;;;;;;;;;;;;2.67;62.24;96159.41;4952746;28;20165;-67
2024/02/21 01:12:21;;;;;;;;;;;;;;;2.37;61.69;96157.16;4953105;28;19964;-67
2024/02/21 01:14:46;;;;;;;;;;;;;;;3.12;60.91;96158.66;4943818;28;20230;-67
2024/02/21 01:17:11;;;;;;;;;;;;;;;2.82;60.97;96160.88;4953497;28;19968;-71
2024/02/21 01:19:37;;;;;;;;;;;;;;;2.76;60.53;96156.94;4952617;28;20116;-67
2024/02/21 01:22:02;;;;;;;;;;;;;;;3.25;60.16;96153.31;4952416;28;19988;-67
2024/02/21 01:24:28;;;;;;;;;;;;;;;3.65;58.57;96149.38;4951962;28;19921;-67
2024/02/21 01:26:53;;;;;;;;;;;;;;;3.61;59.48;96158.50;4946275;28;19945;-67
2024/02/21 01:29:18;;;;;;;;;;;;;;;3.50;58.31;96156.72;4952333;28;20427;-66
2024/02/21 01:31:43;;;;;;;;;;;;;;;2.21;63.26;96156.63;4952700;28;19926;-67
2024/02/21 01:34:09;;;;;;;;;;;;;;;1.84;64.49;96155.69;4950442;28;20040;-67
2024/02/21 01:36:34;;;;;;;;;;;;;;;3.48;59.23;96140.19;4953923;28;20008;-67
2024/02/21 01:38:59;;;;;;;;;;;;;;;3.77;57.55;96135.25;4952167;28;20150;-67
2024/02/21 01:41:25;;;;;;;;;;;;;;;3.34;59.78;96138.59;4952890;28;20020;-67
2024/02/21 01:43:50;;;;;;;;;;;;;;;3.64;58.68;96134.56;4952960;28;20237;-66
2024/02/21 01:46:15;;;;;;;;;;;;;;;3.89;57.76;96130.81;4952688;28;20083;-66
2024/02/21 01:48:40;;;;;;;;;;;;;;;4.16;56.92;96133.97;4951981;28;19922;-67
2024/02/21 01:51:06;;;;;;;;;;;;;;;3.88;57.46;96128.28;4967651;28;20036;-67
2024/02/21 01:53:35;;;;;;;;;;;;;;;3.98;57.20;96131.03;4952095;28;19925;-67
2024/02/21 01:56:00;;;;;;;;;;;;;;;3.83;56.67;96120.75;4970749;28;20300;-67
2024/02/21 01:58:25;;;;;;;;;;;;;;;3.06;59.61;96123.13;4955560;28;20181;-68
2024/02/21 02:00:51;;;;;;;;;;;;;;;3.91;58.01;96117.50;4953815;28;19924;-68
2024/02/21 02:03:19;;;;;;;;;;;;;;;3.88;57.56;96112.47;4955671;28;20597;-68
2024/02/21 02:05:45;;;;;;;;;;;;;;;3.94;58.16;96107.56;4957048;28;20532;-68
2024/02/21 02:08:11;;;;;;;;;;;;;;;4.10;57.24;96105.47;4955576;28;20274;-67
2024/02/21 02:10:36;;;;;;;;;;;;;;;4.47;55.55;96106.88;4956199;28;19933;-67
2024/02/21 02:13:02;;;;;;;;;;;;;;;3.68;57.21;96092.03;4971254;28;19922;-67
2024/02/21 02:15:27;;;;;;;;;;;;;;;4.02;57.29;96090.28;4955685;28;20752;-67
2024/02/21 02:17:52;;;;;;;;;;;;;;;3.42;59.22;96092.31;4972533;28;19953;-67
2024/02/21 02:20:17;;;;;;;;;;;;;;;4.22;56.54;96087.81;4956508;28;19922;-68
2024/02/21 02:22:43;;;;;;;;;;;;;;;4.34;55.73;96089.44;4953945;28;20104;-68
2024/02/21 02:25:08;;;;;;;;;;;;;;;3.40;57.01;96082.81;4970789;28;20411;-67
2024/02/21 02:27:33;;;;;;;;;;;;;;;3.68;57.60;96085.94;4956000;28;20651;-68
2024/02/21 02:29:58;;;;;;;;;;;;;;;3.59;57.78;96079.63;4953519;28;20359;-67
2024/02/21 02:35:26;;;;;;;;;;;;;;;3.67;58.31;96063.19;4955800;28;20302;-68
2024/02/21 02:37:52;;;;;;;;;;;;;;;3.52;57.34;96054.72;4956033;28;19930;-67
2024/02/21 02:40:18;;;;;;;;;;;;;;;3.38;58.19;96053.16;4956082;28;20379;-67
2024/02/21 02:42:43;;;;;;;;;;;;;;;3.51;57.47;96048.63;4952919;28;20344;-67
2024/02/21 02:45:08;;;;;;;;;;;;;;;4.04;56.31;96043.56;4955930;28;19949;-68
2024/02/21 02:47:34;;;;;;;;;;;;;;;4.11;56.28;96049.19;4953947;28;19957;-67
2024/02/21 02:50:00;;;;;;;;;;;;;;;3.41;57.22;96047.66;4952593;28;19972;-68
2024/02/21 02:52:25;;;;;;;;;;;;;;;3.51;56.91;96022.28;4954863;28;20051;-67
2024/02/21 02:54:51;;;;;;;;;;;;;;;3.87;57.83;96016.81;4954692;28;19922;-67
2024/02/21 02:57:17;;;;;;;;;;;;;;;3.97;58.86;96010.75;4953498;28;19998;-67
2024/02/21 02:59:42;;;;;;;;;;;;;;;4.16;55.83;96002.19;4954303;28;19930;-67
2024/02/21 03:02:07;;;;;;;;;;;;;;;3.76;57.76;96003.66;4955355;28;20467;-67
2024/02/21 03:04:33;;;;;;;;;;;;;;;2.58;60.64;96003.22;4954923;28;20025;-68
2024/02/21 03:06:58;;;;;;;;;;;;;;;3.48;57.72;95995.38;4953725;28;19937;-67
2024/02/21 03:09:23;;;;;;;;;;;;;;;3.04;59.32;95998.78;4955220;28;20032;-68
2024/02/21 03:11:48;;;;;;;;;;;;;;;4.04;56.79;96004.03;4952208;28;19962;-68
2024/02/21 03:14:14;;;;;;;;;;;;;;;3.65;57.43;96004.56;4955142;28;20122;-67
2024/02/21 03:16:39;;;;;;;;;;;;;;;3.37;58.01;96002.31;4953568;28;20446;-68
2024/02/21 03:19:04;;;;;;;;;;;;;;;3.67;57.14;96000.84;4954751;28;20346;-67
2024/02/21 03:21:29;;;;;;;;;;;;;;;3.39;57.63;96003.03;4950312;28;19981;-68
2024/02/21 03:23:55;;;;;;;;;;;;;;;2.85;58.47;96018.63;4949050;28;20506;-67
2024/02/21 03:26:20;;;;;;;;;;;;;;;2.76;59.72;96006.22;4954983;28;19949;-67
2024/02/21 03:28:46;;;;;;;;;;;;;;;2.74;60.38;96003.69;4954954;28;19980;-67
2024/02/21 03:31:12;;;;;;;;;;;;;;;2.66;60.56;96003.47;4969442;28;20135;-67
2024/02/21 03:33:38;;;;;;;;;;;;;;;1.68;63.77;96006.31;4954142;28;20006;-67
2024/02/21 03:36:03;;;;;;;;;;;;;;;1.99;63.49;96006.69;4954782;28;20294;-67
2024/02/21 03:38:29;;;;;;;;;;;;;;;1.61;64.88;96011.16;4955102;28;19926;-68
2024/02/21 03:40:54;;;;;;;;;;;;;;;2.11;62.61;96006.72;4954458;28;19930;-67
2024/02/21 03:43:19;;;;;;;;;;;;;;;2.00;63.74;96010.13;4954179;28;20312;-68
2024/02/21 03:45:44;;;;;;;;;;;;;;;1.69;64.95;96018.50;4954400;28;20033;-68
2024/02/21 03:48:10;;;;;;;;;;;;;;;1.78;65.03;96006.47;4954743;28;20087;-67
2024/02/21 03:50:35;;;;;;;;;;;;;;;1.69;63.43;96008.00;4954248;28;20020;-67
2024/02/21 03:53:00;;;;;;;;;;;;;;;2.11;63.19;95994.41;4954725;28;19933;-67
2024/02/21 03:55:25;;;;;;;;;;;;;;;2.21;62.89;95991.09;4954175;28;20243;-67
2024/02/21 03:57:51;;;;;;;;;;;;;;;2.34;62.07;95977.84;4954016;28;20331;-68
2024/02/21 04:00:16;;;;;;;;;;;;;;;2.51;61.68;95984.44;4943202;28;19926;-67
2024/02/21 04:02:41;;;;;;;;;;;;;;;0.81;66.75;95981.81;4953722;28;20013;-67
2024/02/21 04:05:10;;;;;;;;;;;;;;;1.30;65.15;95974.00;4954288;28;20021;-67
2024/02/21 04:07:36;;;;;;;;;;;;;;;1.26;64.82;95962.06;4954381;28;19930;-67
2024/02/21 04:10:01;;;;;;;;;;;;;;;2.46;61.97;95955.06;4953752;28;19948;-68
2024/02/21 04:12:26;;;;;;;;;;;;;;;2.34;62.70;95962.91;4954041;28;19926;-68
2024/02/21 04:14:51;;;;;;;;;;;;;;;2.28;62.09;95973.88;4954504;28;20012;-66
2024/02/21 04:17:17;;;;;;;;;;;;;;;2.45;62.22;95966.53;4955098;28;19926;-67
2024/02/21 04:19:42;;;;;;;;;;;;;;;2.19;62.19;95964.09;4954107;28;20422;-68
2024/02/21 04:22:07;;;;;;;;;;;;;;;1.68;64.36;95950.34;4953375;28;19973;-66
2024/02/21 04:24:32;;;;;;;;;;;;;;;2.42;62.33;95941.31;4953924;28;20340;-67
2024/02/21 04:26:58;;;;;;;;;;;;;;;2.22;63.22;95948.09;4946882;28;19972;-68
2024/02/21 04:29:23;;;;;;;;;;;;;;;2.05;64.55;95949.38;4953378;28;19930;-67
2024/02/21 04:31:49;;;;;;;;;;;;;;;1.97;64.70;95947.31;4954109;28;19965;-67
2024/02/21 04:34:14;;;;;;;;;;;;;;;2.35;63.46;95940.94;4953029;28;20036;-68
2024/02/21 04:36:39;;;;;;;;;;;;;;;2.31;63.29;95951.81;4954509;28;19972;-67
2024/02/21 04:39:04;;;;;;;;;;;;;;;2.12;63.82;95948.78;4953586;28;20667;-67
2024/02/21 04:41:30;;;;;;;;;;;;;;;2.08;63.85;95952.59;4953856;28;19930;-67
2024/02/21 04:43:55;;;;;;;;;;;;;;;1.72;64.77;95943.91;4953676;28;19936;-68
2024/02/21 04:46:20;;;;;;;;;;;;;;;1.31;66.54;95935.50;4954159;28;20255;-68
2024/02/21 04:48:45;;;;;;;;;;;;;;;1.50;66.75;95954.19;4953964;28;20400;-67
2024/02/21 04:51:11;;;;;;;;;;;;;;;1.64;65.67;95965.50;4953771;28;19930;-67
2024/02/21 04:53:36;;;;;;;;;;;;;;;1.86;64.77;95951.59;4953409;28;19922;-67
2024/02/21 04:56:02;;;;;;;;;;;;;;;1.68;63.89;95955.59;4953568;28;19922;-67
2024/02/21 04:58:27;;;;;;;;;;;;;;;1.85;65.51;95954.34;4953873;28;20241;-67
2024/02/21 05:00:54;;;;;;;;;;;;;;;1.45;65.20;95958.09;4942658;28;20464;-66
2024/02/21 05:03:19;;;;;;;;;;;;;;;1.87;65.50;95941.91;4953535;28;20080;-67
2024/02/21 05:05:45;;;;;;;;;;;;;;;1.97;65.44;95939.44;4953306;28;20156;-67
2024/02/21 05:08:10;;;;;;;;;;;;;;;2.23;62.99;95940.09;4953772;28;20300;-68
2024/02/21 05:10:35;;;;;;;;;;;;;;;2.05;63.98;95942.34;4953000;28;19957;-67
2024/02/21 05:13:01;;;;;;;;;;;;;;;2.24;62.67;95938.28;4953281;28;19926;-68
2024/02/21 05:15:26;;;;;;;;;;;;;;;0.72;68.90;95935.28;4953131;28;19926;-67
2024/02/21 05:17:51;;;;;;;;;;;;;;;2.11;63.91;95926.09;4953329;28;19977;-67
2024/02/21 05:20:16;;;;;;;;;;;;;;;2.51;62.67;95918.72;4954104;28;20362;-67
2024/02/21 05:22:42;;;;;;;;;;;;;;;2.43;62.05;95905.34;4951634;28;19922;-67
2024/02/21 05:25:07;;;;;;;;;;;;;;;1.56;64.82;95905.69;4939938;28;20327;-67
2024/02/21 05:27:32;;;;;;;;;;;;;;;1.31;65.89;95914.50;4953715;28;20280;-67
2024/02/21 05:29:58;;;;;;;;;;;;;;;1.89;64.24;95911.16;4953453;28;19922;-67
2024/02/21 05:32:23;;;;;;;;;;;;;;;2.16;64.24;95906.53;4957282;28;19972;-67
2024/02/21 05:34:49;;;;;;;;;;;;;;;2.68;61.84;95893.75;4956636;28;20042;-67
2024/02/21 05:37:15;;;;;;;;;;;;;;;2.36;62.60;95905.00;4957285;28;19953;-67
2024/02/21 05:39:40;;;;;;;;;;;;;;;2.84;61.21;95895.16;4956117;28;20382;-68
2024/02/21 05:42:05;;;;;;;;;;;;;;;2.29;62.08;95896.75;4956646;28;19929;-67
2024/02/21 05:44:31;;;;;;;;;;;;;;;2.69;61.89;95897.22;4956877;28;19922;-68
2024/02/21 05:46:56;;;;;;;;;;;;;;;2.81;60.50;95890.97;4957010;28;19937;-67
2024/02/21 05:49:21;;;;;;;;;;;;;;;3.06;60.26;95896.06;4956788;28;20387;-67
2024/02/21 05:51:47;;;;;;;;;;;;;;;2.00;63.02;95900.66;4957017;28;20472;-67
2024/02/21 05:54:12;;;;;;;;;;;;;;;2.03;62.45;95902.22;4956499;28;20263;-67
2024/02/21 05:56:37;;;;;;;;;;;;;;;2.80;61.89;95907.72;4956878;28;19922;-67
2024/02/21 05:59:02;;;;;;;;;;;;;;;2.16;63.00;95914.41;4953354;28;19980;-67
2024/02/21 06:01:28;;;;;;;;;;;;;;;1.73;65.04;95909.69;4953268;28;20413;-67
2024/02/21 06:03:53;;;;;;;;;;;;;;;1.41;66.25;95904.16;4956674;28;19965;-67
2024/02/21 06:06:18;;;;;;;;;;;;;;;1.81;65.08;95905.66;4956370;28;19960;-67
2024/02/21 06:08:43;;;;;;;;;;;;;;;1.78;64.96;95908.50;4956929;28;20003;-67
2024/02/21 06:11:09;;;;;;;;;;;;;;;1.43;66.20;95916.22;4956085;28;20298;-67
2024/02/21 06:13:37;;;;;;;;;;;;;;;1.55;65.57;95896.16;4956547;28;20228;-67
2024/02/21 06:16:03;;;;;;;;;;;;;;;1.93;64.24;95901.22;4956513;28;19918;-67
2024/02/21 06:18:28;;;;;;;;;;;;;;;1.53;65.48;95903.28;4956665;28;20521;-67
2024/02/21 06:20:53;;;;;;;;;;;;;;;2.02;63.82;95897.94;4957092;28;19926;-67
2024/02/21 06:23:19;;;;;;;;;;;;;;;1.96;64.58;95898.38;4954445;28;20084;-67
2024/02/21 06:25:44;;;;;;;;;;;;;;;2.48;62.38;95892.66;4955822;28;20240;-67
2024/02/21 06:28:09;;;;;;;;;;;;;;;2.85;62.13;95889.78;4956360;28;20375;-67
2024/02/21 06:30:35;;;;;;;;;;;;;;;3.01;60.17;95881.50;4956044;28;20004;-67
2024/02/21 06:33:02;;;;;;;;;;;;;;;3.08;59.87;95892.34;4956326;28;20387;-68
2024/02/21 06:35:27;;;;;;;;;;;;;;;2.87;59.58;95900.16;4956295;28;20078;-67
2024/02/21 06:37:53;;;;;;;;;;;;;;;2.55;60.89;95911.44;4955348;28;20295;-67
2024/02/21 06:40:20;;;;;;;;;;;;;;;2.77;60.37;95903.53;4955359;28;19930;-68
2024/02/21 06:42:45;;;;;;;;;;;;;;;2.49;60.50;95908.31;4955367;28;20265;-67
2024/02/21 06:45:10;;;;;;;;;;;;;;;2.85;59.57;95905.56;4955316;28;20462;-68
2024/02/21 06:47:36;;;;;;;;;;;;;;;2.76;60.10;95893.16;4955672;28;19965;-67
2024/02/21 06:50:02;;;;;;;;;;;;;;;2.68;59.77;95892.91;4954717;28;19934;-67
2024/02/21 06:52:27;;;;;;;;;;;;;;;2.98;59.21;95892.25;4956104;28;19921;-67
2024/02/21 06:54:53;;;;;;;;;;;;;;;2.36;60.03;95889.22;4954729;28;20357;-67
2024/02/21 06:57:18;;;;;;;;;;;;;;;2.70;59.80;95883.09;4955450;28;19970;-69
2024/02/21 06:59:43;;;;;;;;;;;;;;;2.82;58.57;95879.50;4946668;28;19962;-67
2024/02/21 07:02:08;;;;;;;;;;;;;;;2.36;59.70;95884.81;4953764;28;20278;-69
2024/02/21 07:04:34;;;;;;;;;;;;;;;2.65;59.03;95875.56;4955717;28;19930;-67
2024/02/21 07:06:59;;;;;;;;;;;;;;;2.63;59.45;95865.19;4955453;28;19926;-67
2024/02/21 07:09:24;;;;;;;;;;;;;;;3.00;59.50;95871.09;4954386;28;20678;-68
2024/02/21 07:11:49;;;;;;;;;;;;;;;2.72;58.86;95868.06;4955036;28;19988;-67
2024/02/21 07:14:18;;;;;;;;;;;;;;;2.70;58.18;95870.81;4954954;28;20321;-68
2024/02/21 07:16:43;;;;;;;;;;;;;;;3.21;57.61;95875.56;4953469;28;19922;-68
2024/02/21 07:19:08;;;;;;;;;;;;;;;3.00;57.13;95876.34;4954810;28;19933;-67
2024/02/21 07:21:33;;;;;;;;;;;;;;;3.37;56.74;95869.88;4954924;28;19926;-67
2024/02/21 07:23:59;;;;;;;;;;;;;;;3.14;58.67;95872.59;4948942;28;20370;-68
2024/02/21 07:26:24;;;;;;;;;;;;;;;3.05;57.93;95866.28;4954193;28;19930;-68
2024/02/21 07:28:49;;;;;;;;;;;;;;;3.04;57.89;95870.69;4955318;28;19994;-67
2024/02/21 07:31:14;;;;;;;;;;;;;;;2.99;58.33;95870.25;4954605;28;20332;-67
2024/02/21 07:33:40;;;;;;;;;;;;;;;3.20;58.29;95876.53;4953706;28;19929;-68
2024/02/21 07:36:06;;;;;;;;;;;;;;;2.97;58.61;95871.34;4953628;28;20276;-67
2024/02/21 07:38:31;;;;;;;;;;;;;;;3.03;58.65;95876.13;4949520;28;19933;-67
2024/02/21 07:40:56;;;;;;;;;;;;;;;3.09;58.21;95872.16;4954492;28;19934;-67
2024/02/21 07:43:22;;;;;;;;;;;;;;;2.96;58.66;95870.50;4955121;28;20000;-67
2024/02/21 07:45:47;;;;;;;;;;;;;;;3.00;57.86;95871.91;4952831;28;20028;-67
2024/02/21 07:48:12;;;;;;;;;;;;;;;3.10;58.92;95864.09;4954581;28;19937;-67
2024/02/21 07:50:39;;;;;;;;;;;;;;;2.54;59.18;95855.41;4951800;28;20445;-68
2024/02/21 07:53:05;;;;;;;;;;;;;;;2.94;59.19;95858.44;4952130;28;19989;-66
2024/02/21 07:55:30;;;;;;;;;;;;;;;3.24;57.55;95854.25;4953623;28;19926;-67
2024/02/21 07:57:55;;;;;;;;;;;;;;;2.55;60.54;95854.44;4954314;28;20135;-67
2024/02/21 08:00:21;;;;;;;;;;;;;;;1.11;61.84;95865.19;4951882;28;20400;-67
2024/02/21 08:02:46;;;;;;;;;;;;;;;1.90;60.58;95851.59;4953596;28;19926;-67
2024/02/21 08:05:12;;;;;;;;;;;;;;;2.11;61.91;95839.41;4952758;28;19948;-67
2024/02/21 08:07:37;;;;;;;;;;;;;;;2.26;62.48;95841.81;4952749;28;19930;-67
2024/02/21 08:10:03;;;;;;;;;;;;;;;2.41;61.52;95833.69;4952070;28;19926;-68
2024/02/21 08:12:28;;;;;;;;;;;;;;;3.24;60.29;95835.84;4952812;28;19926;-67
2024/02/21 08:14:53;;;;;;;;;;;;;;;3.42;57.55;95836.97;4947826;28;19996;-67
2024/02/21 08:17:18;;;;;;;;;;;;;;;3.50;57.43;95827.63;4950920;28;20347;-67
2024/02/21 08:19:44;;;;;;;;;;;;;;;3.40;57.65;95830.97;4952662;28;20017;-68
2024/02/21 08:22:09;;;;;;;;;;;;;;;3.59;56.20;95826.84;4951517;28;20161;-66
2024/02/21 08:24:34;;;;;;;;;;;;;;;3.35;57.18;95822.63;4951087;28;20506;-67
2024/02/21 08:26:59;;;;;;;;;;;;;;;2.40;59.09;95822.34;4951520;28;20371;-67
2024/02/21 08:29:25;;;;;;;;;;;;;;;2.14;60.14;95810.28;4952225;28;20227;-67
2024/02/21 08:31:50;;;;;;;;;;;;;;;3.39;56.19;95808.25;4948411;28;19987;-67
2024/02/21 08:34:15;;;;;;;;;;;;;;;3.70;54.95;95804.03;4956239;28;19965;-67
2024/02/21 08:36:41;;;;;;;;;;;;;;;1.72;58.88;95813.50;4951292;28;20376;-67
2024/02/21 08:39:07;;;;;;;;;;;;;;;3.02;57.29;95803.41;4949944;28;20262;-67
2024/02/21 08:41:32;;;;;;;;;;;;;;;3.10;56.91;95795.69;4943813;28;20182;-67
2024/02/21 08:43:57;;;;;;;;;;;;;;;3.41;55.82;95793.16;4951037;28;20049;-67
2024/02/21 08:46:24;;;;;;;;;;;;;;;3.67;54.41;95784.91;4952076;28;20531;-67
2024/02/21 08:48:49;;;;;;;;;;;;;;;3.17;55.36;95782.91;4945126;28;20100;-66
2024/02/21 08:51:14;;;;;;;;;;;;;;;3.28;54.67;95784.63;4950346;28;19930;-66
2024/02/21 08:53:40;;;;;;;;;;;;;;;3.51;54.16;95774.00;4951994;28;20039;-67
2024/02/21 08:56:05;;;;;;;;;;;;;;;3.14;55.50;95783.16;4951450;28;19929;-67
2024/02/21 08:58:30;;;;;;;;;;;;;;;2.82;58.03;95768.22;4952505;28;19942;-67
2024/02/21 09:00:56;;;;;;;;;;;;;;;3.03;56.13;95776.16;4949616;28;20465;-66
2024/02/21 09:03:22;;;;;;;;;;;;;;;4.20;52.55;95761.13;4950066;28;19926;-67
2024/02/21 09:05:47;;;;;;;;;;;;;;;2.76;54.79;95765.13;4966717;28;19937;-66
2024/02/21 09:08:12;;;;;;;;;;;;;;;3.46;54.30;95770.91;4956190;28;19930;-67
2024/02/21 09:10:39;;;;;;;;;;;;;;;3.50;53.19;95751.28;4956031;28;20583;-67
2024/02/21 09:13:04;;;;;;;;;;;;;;;2.90;54.54;95756.09;4956347;28;19952;-66
2024/02/21 09:15:29;;;;;;;;;;;;;;;3.49;54.11;95745.16;4955921;28;20616;-67
2024/02/21 09:17:54;;;;;;;;;;;;;;;2.05;57.92;95760.28;4954739;28;19930;-67
2024/02/21 09:20:20;;;;;;;;;;;;;;;2.82;54.73;95769.03;4955188;28;19932;-67
2024/02/21 09:22:45;;;;;;;;;;;;;;;2.38;56.93;95766.41;4947081;28;19954;-67
2024/02/21 09:25:11;;;;;;;;;;;;;;;2.48;56.62;95754.22;4956225;28;20008;-67
2024/02/21 09:27:37;;;;;;;;;;;;;;;3.00;55.85;95744.84;4955582;28;20426;-67
2024/02/21 09:30:04;;;;;;;;;;;;;;;3.03;54.89;95750.66;4955686;28;20228;-67
2024/02/21 09:32:29;;;;;;;;;;;;;;;2.36;57.12;95755.22;4955470;28;19921;-67
2024/02/21 09:34:55;;;;;;;;;;;;;;;1.50;59.62;95756.56;4954476;28;20003;-67
2024/02/21 09:37:20;;;;;;;;;;;;;;;2.75;55.33;95744.19;4955500;28;20141;-66
2024/02/21 09:39:47;;;;;;;;;;;;;;;2.22;56.05;95736.09;4955430;28;20005;-66
2024/02/21 09:42:13;;;;;;;;;;;;;;;2.46;56.08;95723.75;4956726;28;20549;-66
2024/02/21 09:44:38;;;;;;;;;;;;;;;2.71;56.56;95729.63;4971017;28;20042;-66
2024/02/21 09:47:07;;;;;;;;;;;;;;;3.65;56.37;95717.53;4952034;28;19941;-67
2024/02/21 09:49:32;;;;;;;;;;;;;;;3.26;53.90;95710.22;4970602;28;20197;-66
2024/02/21 09:51:58;;;;;;;;;;;;;;;3.68;52.89;95718.09;4954513;28;20182;-66
2024/02/21 09:54:24;;;;;;;;;;;;;;;4.26;52.48;95704.41;4970320;28;19926;-66
2024/02/21 09:56:49;;;;;;;;;;;;;;;4.35;52.63;95708.84;4961504;28;19926;-66
2024/02/21 09:59:17;;;;;;;;;;;;;;;5.03;49.85;95695.81;4954982;28;20210;-66
2024/02/21 10:01:44;;;;;;;;;;;;;;;5.14;50.19;95687.75;4948222;28;19931;-67
2024/02/21 10:04:09;;;;;;;;;;;;;;;5.32;48.94;95679.13;4955919;28;19977;-67
2024/02/21 10:06:34;;;;;;;;;;;;;;;3.25;53.84;95682.25;4955000;28;19938;-67
2024/02/21 10:09:00;;;;;;;;;;;;;;;3.51;53.93;95684.50;4971086;28;19981;-67
2024/02/21 10:11:25;;;;;;;;;;;;;;;4.62;50.63;95682.81;4956323;28;19969;-67
2024/02/21 10:13:51;;;;;;;;;;;;;;;3.07;55.22;95682.00;4955607;28;20340;-67
2024/02/21 10:16:16;;;;;;;;;;;;;;;4.79;53.27;95684.72;4954239;28;19932;-67
2024/02/21 10:18:41;;;;;;;;;;;;;;;4.40;50.46;95696.13;4954376;28;19926;-66
2024/02/21 10:21:07;;;;;;;;;;;;;;;4.52;50.84;95688.88;4954702;28;19933;-67
2024/02/21 10:23:42;;;;;;;;;;;;;;;2.38;55.76;95692.84;4954868;28;19926;-67
2024/02/21 10:26:07;;;;;;;;;;;;;;;2.98;55.50;95694.97;4953187;28;19953;-67
2024/02/21 10:28:33;;;;;;;;;;;;;;;4.81;55.09;95676.69;4954894;28;20296;-67
2024/02/21 10:30:58;;;;;;;;;;;;;;;4.07;55.77;95674.41;4954615;28;19960;-67
2024/02/21 10:33:25;;;;;;;;;;;;;;;5.17;48.61;95670.81;4953900;28;19929;-67
2024/02/21 10:35:51;;;;;;;;;;;;;;;3.96;51.42;95675.34;4953076;28;19948;-67
2024/02/21 10:38:16;;;;;;;;;;;;;;;5.58;49.02;95668.72;4953638;28;20403;-67
2024/02/21 10:40:41;;;;;;;;;;;;;;;4.71;49.33;95672.25;4954504;28;19973;-76
2024/02/21 10:43:08;;;;;;;;;;;;;;;3.63;52.60;95672.06;4962444;28;19926;-74
2024/02/21 10:45:34;;;;;;;;;;;;;;;4.09;50.99;95676.91;4952608;28;19948;-74
2024/02/21 10:48:10;;;;;;;;;;;;;;;5.12;48.80;95658.06;4953132;28;19930;-76
2024/02/21 10:50:47;;;;;;;;;;;;;;;4.28;51.67;95660.28;4953211;28;20243;-76
2024/02/21 10:53:31;;;;;;;;;;;;;;;5.90;48.76;95656.09;4950047;28;19957;-76
2024/02/21 10:55:58;;;;;;;;;;;;;;;6.24;49.22;95646.69;4956181;28;19926;-76
2024/02/21 10:58:25;;;;;;;;;;;;;;;5.99;47.57;95646.44;4942985;28;19958;-76
2024/02/21 11:00:50;;;;;;;;;;;;;;;5.07;47.23;95644.47;4947803;28;19930;-76
2024/02/21 11:03:16;;;;;;;;;;;;;;;5.88;47.18;95641.38;4948082;28;20258;-76
2024/02/21 11:05:42;;;;;;;;;;;;;;;4.28;52.35;95637.41;4952985;28;20024;-75
2024/02/21 11:08:07;;;;;;;;;;;;;;;4.45;53.12;95635.03;4952020;28;20263;-75
2024/02/21 11:10:32;;;;;;;;;;;;;;;4.76;50.44;95631.44;4938091;28;20152;-76
2024/02/21 11:13:08;;;;;;;;;;;;;;;6.42;47.58;95614.16;4952979;28;20001;-75
2024/02/21 11:15:33;;;;;;;;;;;;;;;5.92;50.97;95614.47;4951461;28;19933;-75
2024/02/21 11:17:58;;;;;;;;;;;;;;;6.41;48.93;95609.81;4952025;28;20332;-75
2024/02/21 11:20:34;;;;;;;;;;;;;;;6.08;51.21;95605.91;4953197;28;20213;-75
2024/02/21 11:22:59;;;;;;;;;;;;;;;4.90;52.03;95606.41;4935353;28;19973;-75
2024/02/21 11:25:25;;;;;;;;;;;;;;;6.19;49.93;95611.94;4952971;28;19926;-75
2024/02/21 11:27:53;;;;;;;;;;;;;;;6.93;46.68;95597.69;4950284;28;20475;-75
2024/02/21 11:30:22;;;;;;;;;;;;;;;7.09;44.83;95591.66;4960084;28;20134;-75
2024/02/21 11:32:47;;;;;;;;;;;;;;;6.53;48.90;95586.66;4937380;28;20101;-75
2024/02/21 11:35:18;;;;;;;;;;;;;;;6.12;46.93;95587.91;4954003;28;20593;-75
2024/02/21 11:37:46;;;;;;;;;;;;;;;7.33;46.47;95582.19;4951811;28;20570;-76
2024/02/21 11:40:12;;;;;;;;;;;;;;;4.89;47.48;95599.44;4951898;28;19956;-75
2024/02/21 11:42:37;;;;;;;;;;;;;;;6.64;44.15;95589.06;4949922;28;20371;-75
2024/02/21 11:45:03;;;;;;;;;;;;;;;6.08;44.63;95571.53;4948570;28;20249;-76
2024/02/21 11:47:28;;;;;;;;;;;;;;;4.25;48.70;95584.16;4953874;28;19930;-74
2024/02/21 11:49:53;;;;;;;;;;;;;;;6.06;46.83;95567.38;4936593;28;20167;-75
2024/02/21 11:52:24;;;;;;;;;;;;;;;7.04;45.50;95546.31;4951861;28;20442;-75
2024/02/21 11:54:50;;;;;;;;;;;;;;;6.71;43.89;95561.00;4942575;28;19930;-76
2024/02/21 11:57:15;;;;;;;;;;;;;;;7.27;48.71;95531.53;4940349;28;20034;-74
2024/02/21 11:59:40;;;;;;;;;;;;;;;7.49;43.65;95531.94;4953494;28;19918;-75
2024/02/21 12:02:06;;;;;;;;;;;;;;;7.20;41.68;95525.19;4951518;28;20151;-74
2024/02/21 12:04:31;;;;;;;;;;;;;;;7.20;41.16;95524.34;4954690;28;20341;-75
2024/02/21 12:06:57;;;;;;;;;;;;;;;6.63;42.95;95521.25;4948594;28;19941;-75
2024/02/21 12:09:22;;;;;;;;;;;;;;;7.45;43.67;95497.97;4949291;28;20242;-75
2024/02/21 12:11:56;;;;;;;;;;;;;;;7.58;41.29;95500.97;4946206;28;20258;-75
2024/02/21 12:14:22;;;;;;;;;;;;;;;7.53;42.31;95490.06;4950867;28;20045;-74
2024/02/21 12:16:48;;;;;;;;;;;;;;;7.33;44.43;95482.38;4950155;28;20328;-75
2024/02/21 12:19:13;;;;;;;;;;;;;;;7.74;42.23;95483.47;4948137;28;20052;-74
2024/02/21 12:21:39;;;;;;;;;;;;;;;8.22;41.76;95470.44;4949998;28;20446;-75
2024/02/21 12:24:14;;;;;;;;;;;;;;;7.75;40.99;95479.84;4930807;28;19914;-75
2024/02/21 12:26:40;;;;;;;;;;;;;;;7.64;41.73;95486.25;4952475;28;19933;-75
2024/02/21 12:29:05;;;;;;;;;;;;;;;7.10;41.40;95490.91;4950459;28;20219;-76
2024/02/21 12:31:31;;;;;;;;;;;;;;;7.69;50.02;95470.72;4952263;28;20344;-74
2024/02/21 12:33:56;;;;;;;;;;;;;;;8.41;47.50;95448.03;4948769;28;19933;-74
2024/02/21 12:36:21;;;;;;;;;;;;;;;8.09;41.04;95459.50;4950231;28;20076;-75
2024/02/21 12:38:48;;;;;;;;;;;;;;;6.27;43.77;95471.91;4949994;28;20144;-74
2024/02/21 12:41:14;;;;;;;;;;;;;;;6.87;42.81;95448.31;4950800;28;20374;-75
2024/02/21 12:43:39;;;;;;;;;;;;;;;7.39;42.97;95438.53;4952269;28;20020;-75
2024/02/21 12:46:04;;;;;;;;;;;;;;;8.16;40.95;95439.28;4964166;28;20137;-75
2024/02/21 12:48:29;;;;;;;;;;;;;;;7.90;42.00;95424.38;4951047;28;20033;-76
2024/02/21 12:50:55;;;;;;;;;;;;;;;7.30;42.32;95415.66;4951243;28;19930;-75
2024/02/21 12:53:24;;;;;;;;;;;;;;;4.90;45.72;95438.38;4965210;28;19922;-74